Hewitt, NJ (07421)

10:36 AM EDT on September 20, 2014 (GMT -0400)
Weather Station EW0157 | Change Station
CLOSE
Current Station
Personal Weather Station
Location: West Milford, NJ
Elevation: 675 ft
Nearby Weather Stations

Elev 675 ft 41.15 °N, 74.35 °W | Updated 1 minute ago

Mostly Cloudy
Mostly Cloudy
65.8 °F
Feels Like 65.8 °F
N
0.0
Wind Variable Wind from SW
Gusts 0.0 mph

Today
High -- | Low -- °F
--% Chance of Precip.
Yesterday
High -- | Low -- °F
Precip. -- in
6:42 AM 6:58 PM
Waning Crescent, 12% visible
Pressure 30.28 in
Visibility 10.0 miles
Clouds Mostly Cloudy 2600 ft
Overcast 3500 ft
Dew Point 59 °F
Humidity 79%
Rainfall 0.00 in
Snow Depth Not available.
UV 1 out of 12
Pollen 2.60 out of 12
Air Quality Not available.
Flu Activity Not available.
METAR KFWN 201353Z AUTO 22004KT 10SM BKN026 OVC035 19/13 A3028 RMK AO2 SLP252 T01890133

More Conditions Fewer Conditions

Pressure 30.28 in
Visibility 10.0 miles
Clouds Mostly Cloudy 2600 ft
Overcast 3500 ft
Dew Point 59 °F
Humidity 79%
Rainfall 0.00 in
Snow Depth Not available.
UV 1 out of 12
Pollen 2.60 out of 12
Air Quality Not available.
Flu Activity Not available.
METAR KFWN 201353Z AUTO 22004KT 10SM BKN026 OVC035 19/13 A3028 RMK AO2 SLP252 T01890133

More Conditions Fewer Conditions

10-Day Weather Forecast

Almanac

Astronomy

Sep. 20, 2014 Rise Set
Actual Time 6:42 AM EDT 6:58 PM EDT
Civil Twilight 6:15 AM EDT 7:25 PM EDT
Nautical Twilight 5:42 AM EDT 7:57 PM EDT
Astronomical Twilight 5:09 AM EDT 8:30 PM EDT
Moon 3:18 AM EDT 5:01 PM EDT
Length of Visible Light 13h 10m
Length of Day
12h 15m
Tomorrow will be 2m 43s shorter.
Waning Crescent, 12% of the Moon is Illuminated
Today
Waning Crescent
Sep 24
New
Oct 1
First Quarter
Oct 8
Full
Oct 15
Last Quarter

Today's Extremes

State Highs State Lows

Community

WunderPhotos

Upload Photos

1,754,872 photos uploaded!

WunderBlogs® & News

Nearby

Snow Depth

Station Depth Elevation
No new snow has been reported.

Earthquake Activity

City Distance Mag. Time & Date
No recent earthquake activity has been reported nearby.
Minimum magnitude displayed is 2.5.

Coastal Water Temperatures

Place Temperature
No Stations Reporting

Nearby Weather Stations